Hampton, South Carolina
Current Conditions -  °F | °C
As of 12:15 PM on Sunday 21 Dec 2014 (Local Time) from KAQX Reporting Station
Overcast Overcast  
Wind Chill: 46°   Ceiling: 4600
Heat Index: 48°   Visibility: 9mi
Dew Point: 41°   Wind: 5mph
Humidity: 76%   Direction: NA
Pressure: 30.21"   Gusts: NA
Location:  32.88°N, 81.13°W
Report Text: KAQX 211715Z AUTO VRB04KT 9SM OVC046 09/05 A3021 RMK AO2
Loading
Personal Weather Stations






























Interactive Weather Map New forecast layout! Learn more

10-Day Weather Forecast

Advertisements
Track Severe Weather on mobile